INFORMACIÓN METAR y TAF
METAR FOR LIEE
ADDS - METARS form results

(2030 UTC 18 September 2019)
Data provider http://aviationweather.gov/metar/data/
 
METAR text: LIEE 182020Z 35007KT CAVOK 24/20 Q1015
Conditions at: LIEE (CAGLIARI/ELMAS(A, IT) observed 2020 UTC 18 September 2019
Temperature: 24.0°C (75°F)
Dewpoint: 20.0°C (68°F) [RH = 78%]
Pressure (altimeter): 29.97 inches Hg (1015.0 mb)
Winds: from the N (350 degrees) at 8 MPH (7 knots; 3.6 m/s)
Visibility: 6 or more miles (10+ km)
Ceiling: ceiling and visibility are OK
Clouds: unknown
Weather: no significant weather observed at this time

METAR text: LIEE 181950Z 35006KT 320V020 CAVOK 25/20 Q1015
Conditions at: LIEE (CAGLIARI/ELMAS(A, IT) observed 1950 UTC 18 September 2019
Temperature: 25.0°C (77°F)
Dewpoint: 20.0°C (68°F) [RH = 74%]
Pressure (altimeter): 29.97 inches Hg (1015.0 mb)
Winds: from the N (350 degrees) at 7 MPH (6 knots; 3.1 m/s)
Visibility: 6 or more miles (10+ km)
Ceiling: ceiling and visibility are OK
Clouds: unknown
Weather: no significant weather observed at this time

Forecast for: LIEE (CAGLIARI/ELMAS(A, IT)
Text: TAF LIEE 181700Z 1818/1918 34008KT 9999 FEW030
Forecast period: 1800 UTC 18 September 2019 to 1000 UTC 19 September 2019
Forecast type: FROM: standard forecast or significant change
Winds: from the NNW (340 degrees) at 9 MPH (8 knots; 4.1 m/s)
Visibility: 6 or more miles 10+ km)
Ceiling: at least 12,000 feet AGL
Clouds: few clouds at 3000 feet AGL
Weather: no significant weather forecast for this period
Text: BECMG 1910/1912 16010KT
Forecast period: 1000 to 1800 UTC 19 September 2019
Forecast type: BECOMING: Conditions expected to become as follows by 1200 UTC 19 September 2019
Winds: from the SSE (160 degrees) at 12 MPH (10 knots; 5.1 m/s)
Visibility: 6 or more miles 10+ km)
Ceiling: at least 12,000 feet AGL
Clouds: few clouds at 3000 feet AGL
Weather: no significant weather forecast for this period

 MAPA DE AEROPUERTO

 INFORMACIÓN DE PISTA
Pista 14 Longitud 9196 ft Ancho 148 ft
Elevación 9 ft Umbral desplazado 0 ft Rumbo de pista 138
Pista 32 Longitud 9196 ft Ancho 148 ft
Elevación 4 ft Umbral desplazado 0 ft Rumbo de pista 318

 FRECUANCIAS DEL AEROPUERTO
Tipo APP Nombre CAGLIARI A Frecuencia 118.75 MHZ
Tipo GND Nombre Elmas GND Frecuencia 125.425 MHZ
Tipo MISC Nombre SAR Frecuencia 123.1 MHZ
Tipo TWR Nombre TWR Frecuencia 120.6 MHZ

 RADIO AYUDAS DEL AEROPUERTO
Tipo VOR-DME Nombre Cagliari Frecuencia 113400 KHZ
Tipo NDB Nombre Cagliari Frecuencia 371 KHZ




Normativa | Spanair Virtual © 2019 |